createdAt,value
2022-12-01T00:01:57.033Z,9.11
2022-12-01T00:04:23.446Z,8.96
2022-12-01T00:06:49.784Z,9.28
2022-12-01T00:09:19.709Z,10.02
2022-12-01T00:11:46.714Z,10.24
2022-12-01T00:14:13.089Z,10.51
2022-12-01T00:16:39.547Z,11.19
2022-12-01T00:19:05.908Z,11.36
2022-12-01T00:21:32.279Z,11.43
2022-12-01T00:23:58.626Z,11.69
2022-12-01T00:26:24.949Z,12.01
2022-12-01T00:28:51.278Z,12.29
2022-12-01T00:31:17.702Z,12.37
2022-12-01T00:33:44.141Z,12.80
2022-12-01T00:36:10.530Z,12.82
2022-12-01T00:38:36.986Z,12.52
2022-12-01T00:41:03.411Z,12.86
2022-12-01T00:43:29.759Z,12.75
2022-12-01T00:45:56.142Z,12.48
2022-12-01T00:48:22.542Z,12.35
2022-12-01T00:50:48.915Z,12.41
2022-12-01T00:53:15.266Z,12.45
2022-12-01T00:55:41.601Z,12.22
2022-12-01T00:58:07.941Z,12.39
2022-12-01T01:00:34.333Z,12.52
2022-12-01T01:03:00.670Z,12.23
2022-12-01T01:05:27.042Z,12.60
2022-12-01T01:07:53.555Z,12.90
2022-12-01T01:10:19.996Z,12.38
2022-12-01T01:12:46.405Z,12.79
2022-12-01T01:15:12.763Z,12.95
2022-12-01T01:17:39.151Z,12.78
2022-12-01T01:20:05.547Z,12.40
2022-12-01T01:22:31.888Z,12.40
2022-12-01T01:24:58.273Z,12.79
2022-12-01T01:27:24.668Z,12.47
2022-12-01T01:29:51.150Z,12.39
2022-12-01T01:32:17.506Z,12.22
2022-12-01T01:34:43.846Z,12.41
2022-12-01T01:37:10.174Z,12.81
2022-12-01T01:39:36.504Z,12.73
2022-12-01T01:42:02.894Z,12.20
2022-12-01T01:44:29.242Z,12.33
2022-12-01T01:46:55.573Z,12.08
2022-12-01T01:49:21.960Z,12.04
2022-12-01T01:51:48.316Z,11.71
2022-12-01T01:54:14.649Z,12.20
2022-12-01T01:56:41.007Z,11.99
2022-12-01T01:59:07.356Z,12.07
2022-12-01T02:01:33.804Z,12.04
2022-12-01T02:04:00.232Z,11.29
2022-12-01T02:06:26.599Z,12.14
2022-12-01T02:08:52.944Z,12.06
2022-12-01T02:11:19.317Z,12.07
2022-12-01T02:13:45.695Z,12.05
2022-12-01T02:16:12.116Z,12.08
2022-12-01T02:18:38.502Z,12.80
2022-12-01T02:21:04.897Z,12.34
2022-12-01T02:23:31.244Z,12.54
2022-12-01T02:25:57.578Z,12.36
2022-12-01T02:28:23.966Z,12.32
2022-12-01T02:30:50.396Z,12.70
2022-12-01T02:33:16.765Z,12.42
2022-12-01T02:35:43.144Z,12.33
2022-12-01T02:38:09.537Z,12.62
2022-12-01T02:40:35.885Z,12.22
2022-12-01T02:43:02.273Z,11.98
2022-12-01T02:45:28.679Z,11.91
2022-12-01T02:47:55.069Z,12.10
2022-12-01T02:50:21.414Z,11.88
2022-12-01T02:52:47.747Z,11.54
2022-12-01T02:55:14.105Z,10.95
2022-12-01T02:57:40.450Z,11.22
2022-12-01T03:00:06.836Z,10.60
2022-12-01T03:02:33.224Z,11.03
2022-12-01T03:04:59.646Z,11.06
2022-12-01T03:07:26.047Z,10.65
2022-12-01T03:09:52.403Z,11.41
2022-12-01T03:12:18.737Z,11.06
2022-12-01T03:14:45.122Z,10.93
2022-12-01T03:17:11.467Z,10.82
2022-12-01T03:19:37.798Z,11.01
2022-12-01T03:22:04.177Z,11.73
2022-12-01T03:24:30.519Z,11.43
2022-12-01T03:26:56.859Z,10.66
2022-12-01T03:29:23.190Z,10.74
2022-12-01T03:31:49.523Z,10.53
2022-12-01T03:34:15.851Z,10.95
2022-12-01T03:36:42.172Z,10.61
2022-12-01T03:39:08.506Z,10.74
2022-12-01T03:41:34.847Z,10.76
2022-12-01T03:44:01.180Z,10.62
2022-12-01T03:46:27.565Z,10.35
2022-12-01T03:48:54.053Z,10.49
2022-12-01T03:51:20.428Z,10.26
2022-12-01T03:53:46.826Z,10.50
2022-12-01T03:56:13.216Z,10.94
2022-12-01T03:58:39.561Z,11.14
2022-12-01T04:01:05.894Z,10.99
2022-12-01T04:03:32.227Z,11.22
2022-12-01T04:05:58.568Z,11.16
2022-12-01T04:08:24.906Z,11.14
2022-12-01T04:10:51.279Z,11.01
2022-12-01T04:13:17.624Z,11.11
2022-12-01T04:15:44.030Z,11.25
2022-12-01T04:18:10.421Z,11.03
2022-12-01T04:20:36.789Z,11.47
2022-12-01T04:23:03.126Z,11.52
2022-12-01T04:25:29.454Z,11.80
2022-12-01T04:27:55.809Z,11.33
2022-12-01T04:30:22.130Z,12.08
2022-12-01T04:32:48.521Z,12.02
2022-12-01T04:35:14.869Z,11.60
2022-12-01T04:37:41.243Z,11.69
2022-12-01T04:40:07.616Z,11.70
2022-12-01T04:42:34.024Z,11.72
2022-12-01T04:45:00.410Z,12.27
2022-12-01T04:47:26.809Z,12.59
2022-12-01T04:49:53.214Z,12.34
2022-12-01T04:52:19.570Z,12.54
2022-12-01T04:54:45.918Z,12.41
2022-12-01T04:57:12.301Z,12.15
2022-12-01T04:59:38.659Z,12.43
2022-12-01T05:02:05.092Z,12.15
2022-12-01T05:04:31.625Z,12.07
2022-12-01T05:06:58.000Z,12.57
2022-12-01T05:09:24.343Z,12.43
2022-12-01T05:11:50.692Z,12.52
2022-12-01T05:14:17.021Z,12.22
2022-12-01T05:16:43.462Z,12.20
2022-12-01T05:19:09.878Z,12.34
2022-12-01T05:21:36.224Z,12.10
2022-12-01T05:24:02.608Z,12.23
2022-12-01T05:26:28.959Z,12.19
2022-12-01T05:28:55.337Z,12.66
2022-12-01T05:31:21.716Z,12.51
2022-12-01T05:33:48.096Z,12.58
2022-12-01T05:36:14.426Z,12.48
2022-12-01T05:38:40.788Z,12.41
2022-12-01T05:41:07.151Z,12.70
2022-12-01T05:43:33.474Z,12.58
2022-12-01T05:45:59.898Z,12.66
2022-12-01T05:48:26.365Z,12.96
2022-12-01T05:50:52.718Z,12.45
2022-12-01T05:53:19.113Z,12.84
2022-12-01T05:55:45.480Z,12.83
2022-12-01T05:58:11.863Z,13.14
2022-12-01T06:00:45.022Z,13.87
2022-12-01T06:03:12.248Z,13.22
2022-12-01T06:05:38.760Z,13.39
2022-12-01T06:08:05.143Z,13.48
2022-12-01T06:10:31.488Z,13.62
2022-12-01T06:12:57.874Z,13.48
2022-12-01T06:15:24.243Z,13.52
2022-12-01T06:17:50.586Z,14.01
2022-12-01T06:20:16.969Z,13.79
2022-12-01T06:22:43.352Z,13.66
2022-12-01T06:25:09.695Z,14.03
2022-12-01T06:27:36.038Z,13.78
2022-12-01T06:30:02.414Z,13.78
2022-12-01T06:32:28.831Z,13.66
2022-12-01T06:34:55.250Z,13.35
2022-12-01T06:37:21.636Z,13.43
2022-12-01T06:39:48.330Z,14.08
2022-12-01T06:42:14.882Z,13.32
2022-12-01T06:44:41.249Z,13.74
2022-12-01T06:47:07.615Z,13.72
2022-12-01T06:49:33.967Z,13.18
2022-12-01T06:52:01.181Z,13.85
2022-12-01T06:54:27.651Z,13.57
2022-12-01T06:56:54.010Z,13.26
2022-12-01T06:59:20.499Z,13.73
2022-12-01T07:01:47.287Z,13.73
2022-12-01T07:04:13.715Z,14.15
2022-12-01T07:06:40.106Z,13.70
2022-12-01T07:09:06.454Z,14.20
2022-12-01T07:11:32.841Z,13.73
2022-12-01T07:13:59.195Z,13.62
2022-12-01T07:16:25.600Z,13.59
2022-12-01T07:18:52.022Z,13.74
2022-12-01T07:21:18.401Z,14.35
2022-12-01T07:23:44.800Z,13.83
2022-12-01T07:26:11.155Z,13.79
2022-12-01T07:28:37.494Z,13.54
2022-12-01T07:31:03.915Z,14.18
2022-12-01T07:33:30.361Z,13.68
2022-12-01T07:35:56.706Z,14.42
2022-12-01T07:38:23.077Z,13.66
2022-12-01T07:40:49.448Z,13.81
2022-12-01T07:43:15.788Z,13.88
2022-12-01T07:45:42.217Z,14.13
2022-12-01T07:48:08.634Z,13.60
2022-12-01T07:50:35.029Z,13.70
2022-12-01T07:53:01.394Z,13.71
2022-12-01T07:55:27.779Z,14.25
2022-12-01T07:57:54.180Z,13.78
2022-12-01T08:00:20.522Z,13.62
2022-12-01T08:02:46.956Z,13.61
2022-12-01T08:05:13.373Z,13.67
2022-12-01T08:07:39.775Z,13.68
2022-12-01T08:10:06.207Z,13.89
2022-12-01T08:12:32.570Z,13.39
2022-12-01T08:14:58.999Z,13.10
2022-12-01T08:17:25.355Z,13.48
2022-12-01T08:19:51.822Z,13.15
2022-12-01T08:22:18.202Z,13.45
2022-12-01T08:24:44.539Z,13.03
2022-12-01T08:27:10.875Z,13.80
2022-12-01T08:29:37.252Z,12.77
2022-12-01T08:32:03.604Z,13.40
2022-12-01T08:34:29.990Z,12.98
2022-12-01T08:36:56.342Z,13.02
2022-12-01T08:39:22.742Z,13.44
2022-12-01T08:41:49.101Z,13.12
2022-12-01T08:44:15.482Z,12.91
2022-12-01T08:46:41.946Z,13.50
2022-12-01T08:49:08.380Z,13.45
2022-12-01T08:51:34.755Z,13.12
2022-12-01T08:54:01.107Z,12.88
2022-12-01T08:56:27.452Z,13.06
2022-12-01T08:58:53.778Z,13.12
2022-12-01T09:01:20.227Z,13.26
2022-12-01T09:03:46.651Z,13.36
2022-12-01T09:06:13.007Z,13.28
2022-12-01T09:08:39.338Z,13.50
2022-12-01T09:11:05.736Z,13.27
2022-12-01T09:13:32.094Z,13.10
2022-12-01T09:15:58.617Z,12.93
2022-12-01T09:18:25.017Z,12.94
2022-12-01T09:20:51.367Z,13.56
2022-12-01T09:23:17.706Z,13.33
2022-12-01T09:25:44.082Z,13.49
2022-12-01T09:28:10.499Z,12.94
2022-12-01T09:30:36.893Z,12.97
2022-12-01T09:33:03.300Z,13.40
2022-12-01T09:35:29.715Z,13.34
2022-12-01T09:37:56.106Z,13.14
2022-12-01T09:40:22.506Z,13.03
2022-12-01T09:42:48.852Z,12.92
2022-12-01T09:45:15.234Z,13.21
2022-12-01T09:47:41.631Z,12.31
2022-12-01T09:50:08.010Z,12.42
2022-12-01T09:52:34.398Z,11.96
2022-12-01T09:55:00.765Z,12.64
2022-12-01T09:57:27.139Z,12.39
2022-12-01T09:59:53.492Z,12.37
2022-12-01T10:02:19.969Z,12.41
2022-12-01T10:04:46.364Z,12.29
2022-12-01T10:07:12.785Z,12.65
2022-12-01T10:09:39.209Z,12.38
2022-12-01T10:12:05.566Z,12.21
2022-12-01T10:14:31.918Z,12.26
2022-12-01T10:16:58.309Z,12.15
2022-12-01T10:19:24.638Z,11.76
2022-12-01T10:21:51.013Z,11.96
2022-12-01T10:24:17.398Z,11.65
2022-12-01T10:26:43.754Z,11.48
2022-12-01T10:29:10.135Z,14.90
2022-12-01T10:31:36.601Z,14.69
2022-12-01T10:34:03.040Z,13.33
2022-12-01T10:36:29.389Z,12.91
2022-12-01T10:38:55.757Z,13.11
2022-12-01T10:41:22.137Z,14.24
2022-12-01T10:43:48.542Z,19.93
2022-12-01T10:46:14.961Z,19.73
2022-12-01T10:48:41.349Z,18.80
2022-12-01T10:51:07.695Z,12.82
2022-12-01T10:53:34.041Z,13.53
2022-12-01T10:56:00.419Z,12.51
2022-12-01T10:58:26.772Z,11.79
2022-12-01T11:01:00.946Z,12.29
2022-12-01T11:03:27.668Z,12.12
2022-12-01T11:05:55.357Z,11.82
2022-12-01T11:08:21.708Z,11.57
2022-12-01T11:10:48.101Z,11.57
2022-12-01T11:13:14.456Z,11.78
2022-12-01T11:15:40.804Z,11.55
2022-12-01T11:18:07.184Z,11.88
2022-12-01T11:20:33.659Z,11.17
2022-12-01T11:23:00.117Z,11.38
2022-12-01T11:25:26.485Z,10.47
2022-12-01T11:27:52.872Z,9.91
2022-12-01T11:30:19.316Z,10.55
2022-12-01T11:32:45.724Z,11.27
2022-12-01T11:35:12.077Z,10.64
2022-12-01T11:37:38.414Z,10.73
2022-12-01T11:40:04.756Z,11.17
2022-12-01T11:42:31.087Z,10.80
2022-12-01T11:44:57.414Z,10.21
2022-12-01T11:47:24.820Z,9.84
2022-12-01T11:49:51.714Z,9.42
2022-12-01T11:52:18.413Z,9.37
2022-12-01T11:54:44.764Z,10.12
2022-12-01T11:57:33.146Z,9.82
2022-12-01T11:59:57.521Z,9.83
2022-12-01T12:02:23.986Z,10.18
2022-12-01T12:04:50.400Z,10.74
2022-12-01T12:07:16.796Z,10.31
2022-12-01T12:09:45.219Z,12.31
2022-12-01T12:12:11.747Z,11.23
2022-12-01T12:14:38.118Z,10.22
2022-12-01T12:17:04.454Z,9.90
2022-12-01T12:19:34.229Z,9.94
2022-12-01T12:22:05.679Z,10.67
2022-12-01T12:24:32.058Z,11.84
2022-12-01T12:26:58.416Z,12.81
2022-12-01T12:29:24.790Z,12.46
2022-12-01T12:31:51.171Z,12.94
2022-12-01T12:34:17.515Z,11.31
2022-12-01T12:36:43.907Z,10.89
2022-12-01T12:39:15.150Z,11.35
2022-12-01T12:41:43.044Z,11.76
2022-12-01T12:44:09.379Z,11.48
2022-12-01T12:46:35.792Z,11.80
2022-12-01T12:51:48.574Z,11.58
2022-12-01T12:54:14.969Z,11.49
2022-12-01T12:56:41.433Z,11.44
2022-12-01T12:59:07.827Z,10.52
2022-12-01T13:01:34.427Z,9.87
2022-12-01T13:04:00.869Z,9.86
2022-12-01T13:06:27.211Z,10.31
2022-12-01T13:08:53.598Z,10.25
2022-12-01T13:11:20.072Z,9.56
2022-12-01T13:13:46.480Z,9.37
2022-12-01T13:16:12.982Z,9.73
2022-12-01T13:18:39.448Z,8.89
2022-12-01T13:21:05.818Z,9.38
2022-12-01T13:23:32.196Z,9.62
2022-12-01T13:25:58.569Z,11.25
2022-12-01T13:28:24.931Z,9.85
2022-12-01T13:30:51.333Z,9.56
2022-12-01T13:33:17.721Z,9.72
2022-12-01T13:35:44.115Z,9.82
2022-12-01T13:38:10.497Z,10.27
2022-12-01T13:40:37.028Z,10.60
2022-12-01T13:43:08.940Z,10.50
2022-12-01T13:45:37.068Z,9.39
2022-12-01T13:48:03.441Z,9.22
2022-12-01T13:50:29.825Z,9.50
2022-12-01T13:52:56.251Z,9.54
2022-12-01T13:55:22.649Z,9.86
2022-12-01T13:57:49.041Z,10.33
2022-12-01T14:00:15.468Z,10.00
2022-12-01T14:02:42.006Z,10.82
2022-12-01T14:05:08.465Z,11.46
2022-12-01T14:07:34.940Z,11.46
2022-12-01T14:10:01.363Z,11.62
2022-12-01T14:12:27.772Z,11.58
2022-12-01T14:14:54.375Z,11.74
2022-12-01T14:17:21.031Z,11.08
2022-12-01T14:19:47.423Z,11.22
2022-12-01T14:22:13.816Z,11.23
2022-12-01T14:24:40.205Z,11.09
2022-12-01T14:27:06.550Z,11.31
2022-12-01T14:29:32.933Z,12.22
2022-12-01T14:31:59.279Z,12.70
2022-12-01T14:34:25.616Z,11.89
2022-12-01T14:36:52.005Z,13.33
2022-12-01T14:39:18.393Z,12.86
2022-12-01T14:41:44.752Z,12.75
2022-12-01T14:44:11.257Z,13.48
2022-12-01T14:46:37.723Z,16.32
2022-12-01T14:49:04.092Z,15.44
2022-12-01T14:51:30.468Z,14.56
2022-12-01T14:53:56.848Z,13.09
2022-12-01T14:56:23.200Z,13.38
2022-12-01T14:58:49.597Z,13.91
2022-12-01T15:01:16.040Z,13.99
2022-12-01T15:03:42.441Z,13.85
2022-12-01T15:06:08.847Z,13.89
2022-12-01T15:08:53.280Z,14.26
2022-12-01T15:11:21.609Z,13.77
2022-12-01T15:13:47.930Z,14.65
2022-12-01T15:16:14.346Z,13.55
2022-12-01T15:18:40.711Z,13.50
2022-12-01T15:21:07.053Z,13.62
2022-12-01T15:23:33.397Z,16.71
2022-12-01T15:25:59.765Z,15.76
2022-12-01T15:28:26.238Z,14.39
2022-12-01T15:30:52.611Z,19.68
2022-12-01T15:33:24.013Z,17.11
2022-12-01T15:35:53.266Z,16.69
2022-12-01T15:38:19.637Z,19.21
2022-12-01T15:43:32.305Z,19.61
2022-12-01T15:45:58.735Z,19.77
2022-12-01T15:48:25.142Z,22.49
2022-12-01T15:50:51.524Z,23.42
2022-12-01T15:53:17.924Z,22.39
2022-12-01T15:55:44.322Z,20.20
2022-12-01T15:58:10.709Z,20.00
2022-12-01T16:00:37.054Z,15.74
2022-12-01T16:03:03.402Z,16.73
2022-12-01T16:05:29.777Z,16.03
2022-12-01T16:08:13.496Z,17.27
2022-12-01T16:10:40.397Z,17.84
2022-12-01T16:13:06.787Z,15.10
2022-12-01T16:15:33.185Z,15.11
2022-12-01T16:17:59.594Z,27.02
2022-12-01T16:20:25.985Z,14.71
2022-12-01T16:22:52.373Z,13.92
2022-12-01T16:25:18.776Z,13.91
2022-12-01T16:27:45.159Z,14.80
2022-12-01T16:30:11.501Z,18.36
2022-12-01T16:32:37.906Z,16.63
2022-12-01T16:35:04.281Z,16.73
2022-12-01T16:37:30.649Z,16.52
2022-12-01T16:39:57.050Z,18.17
2022-12-01T16:42:23.404Z,16.50
2022-12-01T16:44:50.200Z,14.95
2022-12-01T16:47:16.800Z,16.17
2022-12-01T16:49:43.155Z,15.68
2022-12-01T16:52:36.668Z,17.08
2022-12-01T16:54:55.869Z,15.30
2022-12-01T16:57:22.261Z,16.13
2022-12-01T16:59:48.616Z,16.88
2022-12-01T17:02:14.980Z,16.07
2022-12-01T17:04:41.389Z,15.69
2022-12-01T17:07:07.840Z,15.89
2022-12-01T17:09:34.317Z,15.63
2022-12-01T17:12:00.728Z,15.91
2022-12-01T17:14:27.062Z,15.78
2022-12-01T17:16:53.409Z,15.75
2022-12-01T17:19:22.504Z,16.98
2022-12-01T17:21:48.857Z,18.42
2022-12-01T17:24:18.982Z,17.49
2022-12-01T17:26:45.821Z,17.95
2022-12-01T17:29:12.232Z,18.76
2022-12-01T17:31:38.669Z,15.88
2022-12-01T17:34:05.106Z,15.39
2022-12-01T17:36:31.496Z,16.56
2022-12-01T17:38:57.886Z,15.77
2022-12-01T17:41:24.238Z,15.58
2022-12-01T17:43:50.585Z,15.90
2022-12-01T17:46:16.956Z,15.95
2022-12-01T17:48:43.377Z,17.04
2022-12-01T17:51:09.724Z,17.09
2022-12-01T17:53:36.056Z,16.98
2022-12-01T17:56:02.449Z,16.92
2022-12-01T17:58:28.807Z,17.52
2022-12-01T18:00:55.190Z,17.37
2022-12-01T18:03:21.624Z,18.62
2022-12-01T18:05:48.001Z,18.64
2022-12-01T18:08:14.376Z,20.20
2022-12-01T18:10:40.777Z,20.83
2022-12-01T18:13:07.122Z,20.50
2022-12-01T18:15:34.842Z,19.34
2022-12-01T18:18:01.313Z,18.56
2022-12-01T18:20:27.661Z,19.06
2022-12-01T18:22:54.017Z,20.11
2022-12-01T18:25:20.351Z,19.08
2022-12-01T18:27:46.764Z,18.49
2022-12-01T18:30:13.152Z,19.09
2022-12-01T18:32:39.546Z,18.55
2022-12-01T18:35:05.955Z,18.70
2022-12-01T18:37:32.289Z,17.85
2022-12-01T18:39:58.710Z,18.58
2022-12-01T18:42:25.054Z,21.48
2022-12-01T18:44:51.721Z,19.57
2022-12-01T18:47:18.421Z,18.53
2022-12-01T18:49:44.784Z,18.77
2022-12-01T18:52:11.176Z,20.81
2022-12-01T18:54:37.640Z,20.32
2022-12-01T18:57:04.039Z,22.39
2022-12-01T18:59:30.434Z,22.18
2022-12-01T19:01:56.850Z,22.47
2022-12-01T19:04:23.263Z,22.69
2022-12-01T19:06:49.659Z,19.86
2022-12-01T19:09:16.062Z,19.66
2022-12-01T19:11:42.395Z,19.88
2022-12-01T19:14:08.768Z,19.16
2022-12-01T19:16:35.237Z,20.32
2022-12-01T19:19:01.692Z,19.09
2022-12-01T19:21:28.088Z,18.67
2022-12-01T19:23:54.503Z,18.85
2022-12-01T19:26:20.876Z,18.44
2022-12-01T19:28:47.232Z,18.18
2022-12-01T19:31:13.750Z,17.92
2022-12-01T19:33:40.185Z,18.42
2022-12-01T19:36:06.573Z,17.82
2022-12-01T19:38:32.935Z,17.87
2022-12-01T19:40:59.268Z,18.25
2022-12-01T19:43:25.662Z,18.07
2022-12-01T19:45:52.047Z,18.05
2022-12-01T19:48:18.501Z,17.94
2022-12-01T19:50:44.891Z,17.57
2022-12-01T19:53:11.284Z,16.96
2022-12-01T19:55:37.637Z,17.56
2022-12-01T19:58:04.003Z,17.43
2022-12-01T20:00:30.347Z,17.93
2022-12-01T20:02:56.722Z,17.79
2022-12-01T20:05:23.103Z,18.31
2022-12-01T20:07:49.562Z,18.89
2022-12-01T20:10:16.014Z,18.89
2022-12-01T20:12:42.397Z,18.82
2022-12-01T20:15:08.781Z,18.49
2022-12-01T20:17:35.123Z,18.27
2022-12-01T20:20:01.506Z,17.72
2022-12-01T20:22:27.897Z,18.13
2022-12-01T20:24:54.310Z,18.20
2022-12-01T20:27:20.717Z,17.99
2022-12-01T20:29:47.081Z,18.11
2022-12-01T20:32:13.471Z,19.11
2022-12-01T20:34:39.883Z,18.13
2022-12-01T20:37:06.257Z,17.82
2022-12-01T20:39:32.648Z,18.03
2022-12-01T20:41:58.983Z,18.44
2022-12-01T20:44:25.415Z,19.21
2022-12-01T20:46:51.778Z,18.84
2022-12-01T20:49:18.132Z,18.95
2022-12-01T20:51:44.520Z,18.26
2022-12-01T20:54:40.769Z,18.72
2022-12-01T20:56:57.241Z,18.68
2022-12-01T20:59:23.597Z,18.25
2022-12-01T21:01:50.070Z,18.34
2022-12-01T21:04:16.480Z,18.37
2022-12-01T21:06:42.855Z,17.85
2022-12-01T21:09:09.251Z,18.04
2022-12-01T21:11:35.645Z,17.80
2022-12-01T21:14:02.042Z,17.79
2022-12-01T21:16:28.536Z,17.75
2022-12-01T21:18:54.919Z,17.72
2022-12-01T21:21:21.305Z,17.49
2022-12-01T21:23:47.714Z,17.42
2022-12-01T21:26:14.147Z,17.84
2022-12-01T21:28:40.496Z,17.76
2022-12-01T21:31:06.890Z,18.22
2022-12-01T21:33:33.364Z,17.35
2022-12-01T21:35:59.870Z,17.94
2022-12-01T21:38:26.311Z,17.67
2022-12-01T21:40:52.672Z,17.57
2022-12-01T21:43:19.126Z,18.10
2022-12-01T21:45:45.522Z,17.70
2022-12-01T21:48:11.937Z,18.02
2022-12-01T21:50:38.288Z,17.58
2022-12-01T21:53:04.698Z,18.11
2022-12-01T21:55:31.082Z,17.63
2022-12-01T21:57:57.436Z,18.02
2022-12-01T22:00:23.817Z,17.58
2022-12-01T22:02:50.310Z,17.60
2022-12-01T22:05:16.836Z,17.16
2022-12-01T22:07:43.296Z,17.73
2022-12-01T22:10:09.755Z,18.12
2022-12-01T22:12:36.151Z,17.52
2022-12-01T22:15:02.591Z,17.72
2022-12-01T22:17:28.990Z,17.94
2022-12-01T22:19:55.551Z,17.31
2022-12-01T22:22:22.041Z,18.44
2022-12-01T22:24:48.597Z,18.00
2022-12-01T22:27:15.206Z,17.50
2022-12-01T22:29:41.602Z,17.71
2022-12-01T22:32:07.994Z,17.42
2022-12-01T22:34:34.400Z,17.99
2022-12-01T22:37:00.779Z,17.50
2022-12-01T22:39:27.156Z,17.19
2022-12-01T22:41:53.494Z,18.69
2022-12-01T22:44:19.871Z,17.28
2022-12-01T22:46:46.280Z,17.98
2022-12-01T22:49:12.683Z,18.11
2022-12-01T22:51:39.036Z,18.75
2022-12-01T22:54:05.429Z,18.05
2022-12-01T22:56:31.776Z,17.55
2022-12-01T22:58:58.136Z,17.52
2022-12-01T23:01:24.517Z,17.39
2022-12-01T23:03:50.900Z,17.01
2022-12-01T23:06:17.228Z,17.81
2022-12-01T23:08:43.562Z,17.55
2022-12-01T23:11:09.973Z,17.88
2022-12-01T23:13:36.374Z,17.47
2022-12-01T23:16:02.904Z,17.54
2022-12-01T23:18:29.289Z,17.38
2022-12-01T23:20:55.630Z,18.15
2022-12-01T23:23:22.026Z,18.24
2022-12-01T23:25:48.369Z,17.70
2022-12-01T23:28:14.745Z,18.24
2022-12-01T23:30:41.136Z,18.34
2022-12-01T23:33:07.521Z,18.16
2022-12-01T23:35:33.857Z,18.01
2022-12-01T23:38:00.205Z,18.56
2022-12-01T23:40:26.561Z,18.61
2022-12-01T23:42:52.907Z,17.81
2022-12-01T23:45:19.237Z,18.26
2022-12-01T23:47:45.590Z,18.58
2022-12-01T23:50:11.976Z,18.44
2022-12-01T23:52:38.320Z,17.96
2022-12-01T23:55:04.664Z,17.90
2022-12-01T23:57:31.032Z,18.13
2022-12-01T23:59:57.410Z,18.04
